Time;durP1;ratioP1;P1;durP2;ratioP2;P2;SDS_P1;SDS_P2;PMS_P1;PMS_P2;Temp;Humidity;BMP_temperature;BMP_pressure;BME280_temperature;BME280_humidity;BME280_pressure;Samples;Min_cycle;Max_cycle;Signal;HPM_P1;HPM_P2
2023/03/24 00:00:10;;;;;;;;;;;;;;;1.95;93.27;93541.25;5050260;28;19924;-38
2023/03/24 00:02:36;;;;;;;;;;;;;;;1.81;92.39;93538.75;5050130;28;20389;-38
2023/03/24 00:05:02;;;;;;;;;;;;;;;1.74;92.88;93533.78;5050413;28;19917;-38
2023/03/24 00:07:29;;;;;;;;;;;;;;;1.76;94.15;93536.75;5050019;28;19916;-38
2023/03/24 00:09:54;;;;;;;;;;;;;;;1.60;95.22;93537.44;5050352;28;19919;-38
2023/03/24 00:12:19;;;;;;;;;;;;;;;1.62;94.68;93532.25;5050291;28;20543;-38
2023/03/24 00:14:45;;;;;;;;;;;;;;;1.51;95.13;93535.69;5049970;28;19967;-38
2023/03/24 00:17:12;;;;;;;;;;;;;;;1.68;95.15;93524.84;5050013;28;19917;-38
2023/03/24 00:19:38;;;;;;;;;;;;;;;1.85;94.29;93531.09;5050134;28;20320;-38
2023/03/24 00:22:03;;;;;;;;;;;;;;;1.73;93.39;93519.44;5049836;28;19916;-38
2023/03/24 00:24:29;;;;;;;;;;;;;;;1.58;95.22;93521.63;5038322;28;19913;-38
2023/03/24 00:26:56;;;;;;;;;;;;;;;1.58;95.76;93513.44;5029701;28;19913;-38
2023/03/24 00:29:22;;;;;;;;;;;;;;;1.66;95.81;93517.19;5029833;28;19917;-38
2023/03/24 00:31:47;;;;;;;;;;;;;;;1.72;94.54;93517.94;5029290;28;19920;-38
2023/03/24 00:34:12;;;;;;;;;;;;;;;1.73;93.53;93522.16;5040925;28;19920;-38
2023/03/24 00:36:37;;;;;;;;;;;;;;;1.34;94.19;93521.97;5048685;28;20417;-38
2023/03/24 00:39:04;;;;;;;;;;;;;;;1.57;94.95;93506.50;5049321;28;19924;-38
2023/03/24 00:41:30;;;;;;;;;;;;;;;1.63;93.51;93504.53;5049834;28;19912;-38
2023/03/24 00:43:57;;;;;;;;;;;;;;;1.45;94.05;93500.28;5049660;28;19923;-38
2023/03/24 00:46:29;;;;;;;;;;;;;;;1.66;95.72;93505.53;5049448;28;19912;-38
2023/03/24 00:49:01;;;;;;;;;;;;;;;1.44;94.49;93504.25;5049446;28;20391;-38
2023/03/24 00:51:34;;;;;;;;;;;;;;;1.37;93.55;93510.13;5046627;28;19916;-38
2023/03/24 00:54:00;;;;;;;;;;;;;;;1.17;95.53;93507.56;5044612;28;20455;-38
2023/03/24 00:56:26;;;;;;;;;;;;;;;1.22;95.63;93498.69;5044763;28;19913;-38
2023/03/24 00:58:53;;;;;;;;;;;;;;;1.11;96.57;93504.06;5049187;28;19919;-38
2023/03/24 01:01:20;;;;;;;;;;;;;;;0.99;97.02;93493.63;5048983;28;19925;-38
2023/03/24 01:03:46;;;;;;;;;;;;;;;0.96;96.61;93500.78;5049160;28;20683;-38
2023/03/24 01:06:12;;;;;;;;;;;;;;;0.85;96.74;93503.41;5049350;28;19921;-38
2023/03/24 01:08:37;;;;;;;;;;;;;;;1.13;95.26;93506.28;5049108;28;20367;-38
2023/03/24 01:11:03;;;;;;;;;;;;;;;0.93;95.30;93504.47;5049232;28;19919;-38
2023/03/24 01:13:29;;;;;;;;;;;;;;;0.92;96.25;93500.25;5064365;28;20400;-38
2023/03/24 01:15:55;;;;;;;;;;;;;;;1.04;96.14;93493.66;5049024;28;20011;-38
2023/03/24 01:18:22;;;;;;;;;;;;;;;1.00;96.84;93495.84;5049115;28;20023;-38
2023/03/24 01:20:48;;;;;;;;;;;;;;;1.18;95.58;93487.31;5049004;28;19913;-38
2023/03/24 01:23:15;;;;;;;;;;;;;;;0.91;95.49;93487.88;5047828;28;19923;-38
2023/03/24 01:25:44;;;;;;;;;;;;;;;0.71;97.19;93485.31;5028934;28;19929;-38
2023/03/24 01:28:09;;;;;;;;;;;;;;;0.93;98.96;93485.44;5028931;28;20405;-38
2023/03/24 01:30:35;;;;;;;;;;;;;;;0.90;99.00;93486.41;5029221;28;19914;-38
2023/03/24 01:33:00;;;;;;;;;;;;;;;0.83;98.23;93488.81;5030060;28;19959;-38
2023/03/24 01:35:26;;;;;;;;;;;;;;;0.90;98.07;93483.69;5048780;28;20443;-38
2023/03/24 01:37:51;;;;;;;;;;;;;;;0.83;97.83;93484.13;5048959;28;20015;-38
2023/03/24 01:40:27;;;;;;;;;;;;;;;0.88;97.97;93477.25;5048718;28;19916;-38
2023/03/24 01:42:53;;;;;;;;;;;;;;;0.63;97.49;93478.81;5049078;28;19913;-38
2023/03/24 01:45:36;;;;;;;;;;;;;;;0.57;98.49;93483.47;5048604;28;19994;-38
2023/03/24 01:48:02;;;;;;;;;;;;;;;0.46;98.48;93470.56;5049642;28;19920;-38
2023/03/24 01:50:28;;;;;;;;;;;;;;;0.47;98.81;93474.03;5052787;28;19999;-38
2023/03/24 01:52:54;;;;;;;;;;;;;;;0.44;98.36;93472.25;5053394;28;19917;-38
2023/03/24 01:55:19;;;;;;;;;;;;;;;0.55;98.30;93475.06;5038858;28;20340;-38
2023/03/24 01:57:46;;;;;;;;;;;;;;;0.36;98.51;93480.13;5068277;28;20004;-38
2023/03/24 02:00:15;;;;;;;;;;;;;;;0.26;99.95;93478.78;5052450;28;19921;-38
2023/03/24 02:02:41;;;;;;;;;;;;;;;0.34;99.55;93481.81;5052517;28;19952;-38
2023/03/24 02:05:08;;;;;;;;;;;;;;;0.43;99.19;93489.81;5052233;28;19916;-38
2023/03/24 02:07:33;;;;;;;;;;;;;;;0.50;98.96;93486.63;5052624;28;20328;-38
2023/03/24 02:10:03;;;;;;;;;;;;;;;0.71;96.94;93488.75;5052602;28;19917;-38
2023/03/24 02:12:29;;;;;;;;;;;;;;;0.63;96.03;93489.69;5052526;28;19924;-38
2023/03/24 02:14:54;;;;;;;;;;;;;;;0.53;98.30;93491.09;5067575;28;20377;-38
2023/03/24 02:17:32;;;;;;;;;;;;;;;0.41;99.01;93482.13;5052364;28;19936;-38
2023/03/24 02:20:10;;;;;;;;;;;;;;;0.43;100.00;93489.81;5067293;28;19916;-38
2023/03/24 02:23:05;;;;;;;;;;;;;;;0.40;100.00;93488.78;5041507;28;20487;-38
2023/03/24 02:25:42;;;;;;;;;;;;;;;0.55;100.00;93496.78;5027129;28;20375;-38
2023/03/24 02:28:14;;;;;;;;;;;;;;;0.47;100.00;93498.47;5026013;28;19953;-38
2023/03/24 02:30:45;;;;;;;;;;;;;;;0.35;100.00;93500.34;5047272;28;19923;-38
2023/03/24 02:33:26;;;;;;;;;;;;;;;0.30;100.00;93505.75;5031859;28;19913;-38
2023/03/24 02:36:01;;;;;;;;;;;;;;;0.42;100.00;93493.72;5032112;28;19913;-38
2023/03/24 02:38:42;;;;;;;;;;;;;;;0.40;100.00;93490.75;5031752;28;20663;-38
2023/03/24 02:41:13;;;;;;;;;;;;;;;0.44;100.00;93489.31;5032002;28;19917;-38
2023/03/24 02:43:42;;;;;;;;;;;;;;;0.40;100.00;93480.66;5031860;28;19917;-38
2023/03/24 02:46:12;;;;;;;;;;;;;;;0.38;100.00;93479.63;5031673;28;19952;-38
2023/03/24 02:48:37;;;;;;;;;;;;;;;0.53;100.00;93480.25;5047002;28;19964;-38
2023/03/24 02:51:21;;;;;;;;;;;;;;;0.61;100.00;93463.00;5031886;28;19953;-38
2023/03/24 02:54:06;;;;;;;;;;;;;;;0.34;100.00;93460.84;5011829;28;19917;-38
2023/03/24 02:56:31;;;;;;;;;;;;;;;0.35;100.00;93467.00;5044284;28;20304;-38
2023/03/24 02:58:56;;;;;;;;;;;;;;;0.33;100.00;93470.22;5051480;28;19917;-38
2023/03/24 03:01:30;;;;;;;;;;;;;;;0.20;100.00;93472.56;5050541;28;20022;-38
2023/03/24 03:04:07;;;;;;;;;;;;;;;0.12;100.00;93471.53;5051546;28;19920;-38
2023/03/24 03:06:33;;;;;;;;;;;;;;;0.26;100.00;93478.06;5066919;28;19917;-38
2023/03/24 03:09:00;;;;;;;;;;;;;;;0.07;100.00;93474.19;5066589;28;19916;-38
2023/03/24 03:11:25;;;;;;;;;;;;;;;0.20;100.00;93474.53;5066522;28;19974;-38
2023/03/24 03:13:58;;;;;;;;;;;;;;;0.36;100.00;93468.50;5066896;28;19913;-38
2023/03/24 03:16:37;;;;;;;;;;;;;;;0.28;100.00;93475.63;5066526;28;19919;-38
2023/03/24 03:19:03;;;;;;;;;;;;;;;0.19;100.00;93468.38;5054261;28;19921;-38
2023/03/24 03:21:31;;;;;;;;;;;;;;;0.23;100.00;93451.88;5031070;28;19917;-38
2023/03/24 03:23:57;;;;;;;;;;;;;;;0.40;100.00;93455.44;5046652;28;19913;-38
2023/03/24 03:26:25;;;;;;;;;;;;;;;0.52;100.00;93459.75;5046518;28;19913;-38
2023/03/24 03:28:56;;;;;;;;;;;;;;;0.60;100.00;93455.34;5030983;28;19979;-38
2023/03/24 03:31:23;;;;;;;;;;;;;;;0.65;100.00;93454.66;5045754;28;19913;-38
2023/03/24 03:33:52;;;;;;;;;;;;;;;0.69;100.00;93460.59;5046417;28;20003;-38
2023/03/24 03:36:38;;;;;;;;;;;;;;;0.74;100.00;93468.78;5046472;28;20451;-38
2023/03/24 03:39:18;;;;;;;;;;;;;;;0.59;100.00;93467.44;5034427;28;19916;-38
2023/03/24 03:41:43;;;;;;;;;;;;;;;0.76;100.00;93471.00;5066535;28;19913;-38
2023/03/24 03:44:08;;;;;;;;;;;;;;;0.54;100.00;93471.59;5051126;28;20298;-38
2023/03/24 03:46:34;;;;;;;;;;;;;;;0.64;100.00;93461.31;5050708;28;20483;-38
2023/03/24 03:48:59;;;;;;;;;;;;;;;0.71;100.00;93455.41;5050445;28;19919;-38
2023/03/24 03:51:25;;;;;;;;;;;;;;;0.94;100.00;93457.03;5048074;28;19967;-38
2023/03/24 03:53:55;;;;;;;;;;;;;;;0.80;99.64;93457.19;5030831;28;19948;-38
2023/03/24 03:56:25;;;;;;;;;;;;;;;0.67;100.00;93455.63;5060813;28;19959;-38
2023/03/24 03:58:52;;;;;;;;;;;;;;;0.42;100.00;93455.72;5065734;28;20600;-38
2023/03/24 04:01:18;;;;;;;;;;;;;;;0.46;100.00;93462.41;5065272;28;19925;-38
2023/03/24 04:04:20;;;;;;;;;;;;;;;0.69;100.00;93466.03;5065644;28;19913;-38
2023/03/24 04:06:46;;;;;;;;;;;;;;;0.42;100.00;93464.59;5027499;28;19917;-38
2023/03/24 04:09:33;;;;;;;;;;;;;;;0.38;100.00;93463.34;5045532;28;20375;-38
2023/03/24 04:12:01;;;;;;;;;;;;;;;0.29;100.00;93468.94;5065663;28;19920;-38
2023/03/24 04:14:45;;;;;;;;;;;;;;;0.21;100.00;93465.19;5044849;28;19948;-38
2023/03/24 04:17:13;;;;;;;;;;;;;;;0.03;100.00;93471.69;5029906;28;19924;-38
2023/03/24 04:19:57;;;;;;;;;;;;;;;-0.05;100.00;93473.34;5030037;28;20294;-38
2023/03/24 04:22:38;;;;;;;;;;;;;;;0.03;100.00;93468.97;5030245;28;20316;-38
2023/03/24 04:25:11;;;;;;;;;;;;;;;0.29;100.00;93471.66;5030080;28;19913;-38
2023/03/24 04:27:45;;;;;;;;;;;;;;;-0.02;100.00;93470.41;5045498;28;19917;-38
2023/03/24 04:30:16;;;;;;;;;;;;;;;-0.10;100.00;93476.75;5045129;28;20098;-38
2023/03/24 04:32:45;;;;;;;;;;;;;;;-0.16;100.00;93479.44;5029510;28;19913;-38
2023/03/24 04:35:11;;;;;;;;;;;;;;;-0.14;100.00;93478.94;5048876;28;19913;-38
2023/03/24 04:37:37;;;;;;;;;;;;;;;-0.06;100.00;93483.47;5065013;28;20015;-38
2023/03/24 04:40:07;;;;;;;;;;;;;;;-0.06;100.00;93483.47;5064946;28;20416;-38
2023/03/24 04:42:36;;;;;;;;;;;;;;;-0.19;100.00;93485.06;5049702;28;19913;-38
2023/03/24 04:45:02;;;;;;;;;;;;;;;-0.25;100.00;93474.16;5065120;28;20426;-38
2023/03/24 04:47:30;;;;;;;;;;;;;;;-0.19;100.00;93480.38;5064766;28;19955;-38
2023/03/24 04:49:59;;;;;;;;;;;;;;;0.07;100.00;93476.91;5064722;28;19944;-38
2023/03/24 04:52:26;;;;;;;;;;;;;;;0.16;100.00;93482.91;5038865;28;19917;-38
2023/03/24 04:54:52;;;;;;;;;;;;;;;0.23;100.00;93487.16;5032173;28;19920;-38
2023/03/24 04:57:17;;;;;;;;;;;;;;;0.28;100.00;93491.91;5049126;28;19921;-38
2023/03/24 04:59:42;;;;;;;;;;;;;;;0.38;100.00;93493.97;5049358;28;19913;-38
2023/03/24 05:02:07;;;;;;;;;;;;;;;0.67;100.00;93495.66;5049153;28;19921;-38
2023/03/24 05:04:35;;;;;;;;;;;;;;;0.77;100.00;93491.53;5049228;28;19919;-38
2023/03/24 05:07:01;;;;;;;;;;;;;;;0.68;100.00;93495.16;5048932;28;20405;-38
2023/03/24 05:09:26;;;;;;;;;;;;;;;0.73;100.00;93502.63;5049151;28;19913;-38
2023/03/24 05:11:51;;;;;;;;;;;;;;;0.91;100.00;93501.47;5034373;28;19921;-38
2023/03/24 05:14:17;;;;;;;;;;;;;;;1.01;100.00;93508.22;5029509;28;20584;-38
2023/03/24 05:16:42;;;;;;;;;;;;;;;1.29;100.00;93505.66;5029027;28;20007;-38
2023/03/24 05:19:07;;;;;;;;;;;;;;;1.25;99.98;93508.59;5029053;28;20028;-38
2023/03/24 05:21:33;;;;;;;;;;;;;;;1.49;99.48;93506.22;5044766;28;19928;-38
2023/03/24 05:23:58;;;;;;;;;;;;;;;1.88;98.77;93511.06;5034157;28;19921;-38
2023/03/24 05:26:25;;;;;;;;;;;;;;;1.98;96.08;93506.88;5035937;28;20381;-38
2023/03/24 05:28:51;;;;;;;;;;;;;;;2.06;94.52;93508.63;5035901;28;19913;-38
2023/03/24 05:31:16;;;;;;;;;;;;;;;2.17;93.68;93505.16;5035237;28;19916;-38
2023/03/24 05:33:41;;;;;;;;;;;;;;;2.08;92.88;93511.59;5042679;28;19913;-38
2023/03/24 05:36:06;;;;;;;;;;;;;;;2.38;92.49;93508.44;5055475;28;20695;-38
2023/03/24 05:38:32;;;;;;;;;;;;;;;2.78;90.31;93510.66;5055402;28;19924;-38
2023/03/24 05:40:57;;;;;;;;;;;;;;;2.89;87.41;93519.56;5055698;28;19924;-38
2023/03/24 05:43:23;;;;;;;;;;;;;;;3.09;87.09;93515.81;5055445;28;20436;-38
2023/03/24 05:45:48;;;;;;;;;;;;;;;3.78;86.33;93519.34;5055441;28;19917;-38
2023/03/24 05:48:13;;;;;;;;;;;;;;;3.89;82.63;93515.81;5055637;28;19944;-38
2023/03/24 05:50:39;;;;;;;;;;;;;;;3.87;83.33;93513.59;5055645;28;19913;-38
2023/03/24 05:53:04;;;;;;;;;;;;;;;4.22;83.08;93510.16;5039084;28;20385;-38
2023/03/24 05:55:29;;;;;;;;;;;;;;;4.59;82.55;93521.38;5043372;28;19948;-38
2023/03/24 05:57:55;;;;;;;;;;;;;;;4.78;80.59;93516.75;5055268;28;20312;-39
2023/03/24 06:00:22;;;;;;;;;;;;;;;4.93;77.52;93506.16;5055217;28;19928;-38
2023/03/24 06:02:47;;;;;;;;;;;;;;;4.84;78.38;93519.41;5055343;28;20425;-38
2023/03/24 06:05:12;;;;;;;;;;;;;;;4.77;79.18;93515.25;5055322;28;19982;-38
2023/03/24 06:07:39;;;;;;;;;;;;;;;5.04;78.19;93510.78;5044305;28;19921;-39
2023/03/24 06:10:06;;;;;;;;;;;;;;;5.35;79.90;93512.97;5035295;28;19921;-38
2023/03/24 06:12:31;;;;;;;;;;;;;;;5.74;77.13;93512.56;5035153;28;20455;-38
2023/03/24 06:14:57;;;;;;;;;;;;;;;6.68;74.43;93511.31;5035103;28;19917;-39
2023/03/24 06:17:23;;;;;;;;;;;;;;;7.31;71.31;93507.78;5035361;28;20020;-38
2023/03/24 06:19:49;;;;;;;;;;;;;;;9.02;66.10;93509.00;5035161;28;19928;-38
2023/03/24 06:22:17;;;;;;;;;;;;;;;10.09;61.96;93511.25;5035095;28;19917;-39
2023/03/24 06:24:42;;;;;;;;;;;;;;;11.29;58.03;93511.63;5034971;28;19913;-39
2023/03/24 06:27:08;;;;;;;;;;;;;;;11.80;55.95;93507.94;5034779;28;19928;-39
2023/03/24 06:29:34;;;;;;;;;;;;;;;12.45;52.97;93512.38;5035031;28;20367;-39
2023/03/24 06:31:59;;;;;;;;;;;;;;;12.86;51.63;93516.66;5034899;28;20007;-39
2023/03/24 06:34:25;;;;;;;;;;;;;;;13.40;50.04;93510.25;5045793;28;20343;-39
2023/03/24 06:36:50;;;;;;;;;;;;;;;14.36;49.50;93514.00;5051470;28;20380;-39
2023/03/24 06:39:16;;;;;;;;;;;;;;;15.65;46.99;93510.28;5051573;28;19928;-39
2023/03/24 06:41:42;;;;;;;;;;;;;;;17.01;43.50;93507.81;5051899;28;19970;-39
2023/03/24 06:44:07;;;;;;;;;;;;;;;18.28;40.55;93511.72;5051473;28;19920;-39
2023/03/24 06:46:32;;;;;;;;;;;;;;;19.20;38.78;93508.66;5051496;28;20046;-38
2023/03/24 06:48:57;;;;;;;;;;;;;;;19.30;37.31;93505.75;5051137;28;19920;-39
2023/03/24 06:51:23;;;;;;;;;;;;;;;20.07;36.13;93514.03;5049201;28;19913;-38
2023/03/24 06:53:48;;;;;;;;;;;;;;;21.16;34.31;93517.63;5031295;28;19964;-38
2023/03/24 06:56:17;;;;;;;;;;;;;;;22.13;33.55;93507.50;5045157;28;19920;-39
2023/03/24 06:58:45;;;;;;;;;;;;;;;22.54;32.77;93515.94;5051461;28;19943;-39
2023/03/24 07:01:10;;;;;;;;;;;;;;;22.93;31.32;93519.34;5050978;28;19921;-39
2023/03/24 07:03:37;;;;;;;;;;;;;;;23.71;30.63;93516.78;5043068;28;19978;-39
2023/03/24 07:06:03;;;;;;;;;;;;;;;23.60;31.07;93526.13;5031369;28;19917;-39
2023/03/24 07:08:29;;;;;;;;;;;;;;;24.15;30.57;93518.09;5031541;28;19940;-39
2023/03/24 07:10:54;;;;;;;;;;;;;;;23.50;31.33;93520.00;5031582;28;20329;-39
2023/03/24 07:13:20;;;;;;;;;;;;;;;23.48;30.74;93517.06;5031281;28;19913;-39
2023/03/24 07:15:45;;;;;;;;;;;;;;;24.31;31.13;93506.78;5031512;28;20381;-39
2023/03/24 07:18:12;;;;;;;;;;;;;;;24.42;30.39;93514.34;5031288;28;20385;-39
2023/03/24 07:20:37;;;;;;;;;;;;;;;25.38;29.51;93515.59;5031791;28;19914;-39
2023/03/24 07:23:03;;;;;;;;;;;;;;;25.31;29.09;93519.56;5031251;28;19920;-39
2023/03/24 07:25:28;;;;;;;;;;;;;;;24.84;30.46;93519.75;5031162;28;20020;-39
2023/03/24 07:27:56;;;;;;;;;;;;;;;25.92;30.02;93517.06;5031171;28;19913;-39
2023/03/24 07:30:22;;;;;;;;;;;;;;;26.76;28.44;93511.00;5031660;28;19942;-39
2023/03/24 07:32:48;;;;;;;;;;;;;;;26.78;28.08;93513.16;5030773;28;19917;-39
2023/03/24 07:35:13;;;;;;;;;;;;;;;27.23;26.80;93512.56;5050686;28;20369;-39
2023/03/24 07:37:38;;;;;;;;;;;;;;;27.24;25.99;93520.41;5050875;28;20023;-39
2023/03/24 07:40:10;;;;;;;;;;;;;;;25.33;27.47;93519.66;5051297;28;19913;-39
2023/03/24 07:42:36;;;;;;;;;;;;;;;26.33;28.28;93517.19;5050772;28;19912;-39
2023/03/24 07:45:01;;;;;;;;;;;;;;;27.21;27.52;93513.22;5050986;28;19966;-39
2023/03/24 07:47:26;;;;;;;;;;;;;;;27.33;27.01;93512.91;5050402;28;19967;-39
2023/03/24 07:49:52;;;;;;;;;;;;;;;27.72;26.21;93507.09;5050632;28;19917;-39
2023/03/24 07:52:17;;;;;;;;;;;;;;;27.49;26.20;93510.59;5041204;28;19920;-39
2023/03/24 07:54:42;;;;;;;;;;;;;;;28.09;26.44;93511.81;5030667;28;20028;-39
2023/03/24 07:57:07;;;;;;;;;;;;;;;27.48;26.57;93501.38;5030471;28;19979;-39
2023/03/24 07:59:33;;;;;;;;;;;;;;;26.57;26.81;93506.03;5030247;28;20004;-39
2023/03/24 08:01:58;;;;;;;;;;;;;;;25.17;29.74;93507.69;5030805;28;19960;-39
2023/03/24 08:04:24;;;;;;;;;;;;;;;25.47;27.59;93497.63;5030511;28;20403;-39
2023/03/24 08:06:49;;;;;;;;;;;;;;;26.86;27.45;93488.66;5030364;28;19913;-39
2023/03/24 08:09:15;;;;;;;;;;;;;;;27.41;25.53;93484.84;5030282;28;19917;-39
2023/03/24 08:11:42;;;;;;;;;;;;;;;26.70;26.85;93488.09;5029442;28;20343;-39
2023/03/24 08:14:07;;;;;;;;;;;;;;;26.44;27.12;93478.69;5030565;28;19920;-39
2023/03/24 08:16:32;;;;;;;;;;;;;;;26.17;28.44;93474.16;5030236;28;19917;-39
2023/03/24 08:18:58;;;;;;;;;;;;;;;27.12;25.88;93486.00;5029650;28;19925;-39
2023/03/24 08:21:23;;;;;;;;;;;;;;;25.20;28.60;93489.44;5030303;28;19917;-39
2023/03/24 08:23:49;;;;;;;;;;;;;;;26.97;26.02;93481.22;5029866;28;19963;-38
2023/03/24 08:26:14;;;;;;;;;;;;;;;26.68;27.96;93475.97;5030169;28;19956;-39
2023/03/24 08:28:40;;;;;;;;;;;;;;;27.58;27.55;93486.78;5029707;28;20396;-39
2023/03/24 08:31:05;;;;;;;;;;;;;;;28.39;26.88;93485.00;5029333;28;20321;-39
2023/03/24 08:33:31;;;;;;;;;;;;;;;26.52;27.38;93478.94;5050744;28;19955;-39
2023/03/24 08:35:56;;;;;;;;;;;;;;;28.26;27.37;93476.81;5049839;28;19913;-39
2023/03/24 08:38:29;;;;;;;;;;;;;;;29.00;24.42;93472.47;5049277;28;19939;-39
2023/03/24 08:40:54;;;;;;;;;;;;;;;28.71;26.05;93461.75;5049382;28;20003;-39
2023/03/24 08:43:22;;;;;;;;;;;;;;;29.57;25.96;93455.41;5049649;28;20000;-39
2023/03/24 08:45:47;;;;;;;;;;;;;;;29.93;23.95;93456.25;5049645;28;19948;-39
2023/03/24 08:48:12;;;;;;;;;;;;;;;30.26;23.37;93454.09;5049162;28;20439;-39
2023/03/24 08:50:39;;;;;;;;;;;;;;;28.84;25.70;93452.88;5049114;28;19994;-39
2023/03/24 08:53:04;;;;;;;;;;;;;;;29.50;24.78;93448.13;5033340;28;19967;-39
2023/03/24 08:55:30;;;;;;;;;;;;;;;29.45;24.06;93446.63;5033403;28;20381;-39
2023/03/24 08:57:55;;;;;;;;;;;;;;;30.41;23.30;93444.47;5028514;28;19924;-39
2023/03/24 09:00:21;;;;;;;;;;;;;;;30.70;23.75;93441.50;5029173;28;19926;-39
2023/03/24 09:02:56;;;;;;;;;;;;;;;31.30;22.74;93439.03;5029280;28;19917;-39
2023/03/24 09:05:21;;;;;;;;;;;;;;;30.83;22.27;93442.44;5029129;28;19964;-39
2023/03/24 09:07:47;;;;;;;;;;;;;;;30.26;22.75;93434.91;5029276;28;20037;-39
2023/03/24 09:10:13;;;;;;;;;;;;;;;28.76;24.63;93444.13;5029134;28;19914;-39
2023/03/24 09:12:38;;;;;;;;;;;;;;;28.11;23.67;93438.06;5029040;28;19928;-39
2023/03/24 09:15:04;;;;;;;;;;;;;;;29.65;22.38;93435.69;5029431;28;19913;-39
2023/03/24 09:17:29;;;;;;;;;;;;;;;29.58;23.44;93436.97;5029033;28;19917;-39
2023/03/24 09:19:55;;;;;;;;;;;;;;;28.99;22.76;93428.38;5029302;28;19916;-39
2023/03/24 09:22:20;;;;;;;;;;;;;;;29.63;24.92;93429.94;5029011;28;19913;-39
2023/03/24 09:24:47;;;;;;;;;;;;;;;31.15;20.29;93422.34;5029223;28;19920;-39
2023/03/24 09:27:13;;;;;;;;;;;;;;;30.62;21.58;93423.53;5028858;28;19960;-39
2023/03/24 09:29:38;;;;;;;;;;;;;;;29.87;21.43;93416.28;5029140;28;19963;-39
2023/03/24 09:32:04;;;;;;;;;;;;;;;29.95;22.55;93424.28;5028918;28;20373;-39
2023/03/24 09:34:30;;;;;;;;;;;;;;;29.62;20.11;93424.94;5042554;28;20384;-39
2023/03/24 09:36:56;;;;;;;;;;;;;;;29.35;20.66;93420.75;5049105;28;19912;-39
2023/03/24 09:39:21;;;;;;;;;;;;;;;29.68;22.36;93428.66;5048799;28;20450;-39
2023/03/24 09:41:47;;;;;;;;;;;;;;;29.24;21.15;93425.47;5049250;28;19919;-39
2023/03/24 09:44:30;;;;;;;;;;;;;;;29.36;22.28;93413.69;5064134;28;19912;-39
2023/03/24 09:47:14;;;;;;;;;;;;;;;29.54;22.28;93419.06;5048943;28;19942;-39
2023/03/24 09:49:40;;;;;;;;;;;;;;;30.27;21.49;93413.56;5048846;28;19990;-39
2023/03/24 09:52:06;;;;;;;;;;;;;;;31.28;18.39;93421.16;5056138;28;20371;-39
2023/03/24 09:54:40;;;;;;;;;;;;;;;30.76;21.99;93409.53;5028691;28;19913;-39
2023/03/24 09:57:07;;;;;;;;;;;;;;;30.14;21.04;93417.56;5009089;28;19917;-39
2023/03/24 09:59:37;;;;;;;;;;;;;;;28.79;21.10;93417.22;5041014;28;20424;-40
2023/03/24 10:02:09;;;;;;;;;;;;;;;30.93;21.20;93405.59;5009025;28;20400;-39
2023/03/24 10:04:34;;;;;;;;;;;;;;;31.81;18.99;93411.28;5009197;28;19917;-39
2023/03/24 10:07:01;;;;;;;;;;;;;;;31.23;16.74;93402.53;5008715;28;19936;-39
2023/03/24 10:09:28;;;;;;;;;;;;;;;30.44;16.92;93406.81;5042200;28;20420;-39
2023/03/24 10:12:03;;;;;;;;;;;;;;;30.61;19.12;93394.31;5012921;28;19967;-39
2023/03/24 10:14:48;;;;;;;;;;;;;;;29.82;19.16;93391.97;5044668;28;19917;-39
2023/03/24 10:17:14;;;;;;;;;;;;;;;30.55;20.07;93391.34;5012661;28;19921;-39
2023/03/24 10:19:43;;;;;;;;;;;;;;;29.30;20.16;93398.59;5012676;28;20373;-39
2023/03/24 10:22:17;;;;;;;;;;;;;;;29.90;20.23;93385.75;5044740;28;19921;-39
2023/03/24 10:25:01;;;;;;;;;;;;;;;30.99;19.15;93380.00;5025693;28;19955;-39
2023/03/24 10:27:26;;;;;;;;;;;;;;;31.23;20.37;93388.28;5032359;28;20004;-39
2023/03/24 10:29:53;;;;;;;;;;;;;;;31.75;18.99;93389.06;5032410;28;20007;-39
2023/03/24 10:32:21;;;;;;;;;;;;;;;31.83;19.08;93385.63;5032164;28;19916;-39
2023/03/24 10:34:47;;;;;;;;;;;;;;;32.02;17.11;93387.31;5063192;28;20020;-39
2023/03/24 10:37:13;;;;;;;;;;;;;;;30.91;18.84;93377.03;5052055;28;20312;-39
2023/03/24 10:39:39;;;;;;;;;;;;;;;31.03;16.73;93376.53;5051907;28;19928;-39
2023/03/24 10:42:04;;;;;;;;;;;;;;;30.73;20.43;93377.41;5051815;28;19991;-39
2023/03/24 10:44:30;;;;;;;;;;;;;;;30.17;18.49;93376.31;5051680;28;19919;-39
2023/03/24 10:46:56;;;;;;;;;;;;;;;29.80;18.90;93368.47;5067082;28;19940;-39
2023/03/24 10:49:22;;;;;;;;;;;;;;;30.66;19.76;93363.75;5067211;28;19912;-39
2023/03/24 10:51:51;;;;;;;;;;;;;;;29.85;20.29;93358.59;5045744;28;19966;-39
2023/03/24 10:54:18;;;;;;;;;;;;;;;30.31;22.27;93362.41;5031595;28;20402;-39
2023/03/24 10:56:44;;;;;;;;;;;;;;;29.84;21.05;93362.84;5031805;28;19913;-39
2023/03/24 10:59:19;;;;;;;;;;;;;;;30.33;22.27;93358.84;5031595;28;20032;-39
2023/03/24 11:01:45;;;;;;;;;;;;;;;30.11;21.34;93356.28;5031398;28;20012;-39
2023/03/24 11:04:11;;;;;;;;;;;;;;;30.50;20.04;93355.63;5046695;28;20003;-39
2023/03/24 11:06:36;;;;;;;;;;;;;;;30.02;21.09;93353.97;5046784;28;19913;-39
2023/03/24 11:09:08;;;;;;;;;;;;;;;28.58;23.30;93347.06;5031358;28;19970;-39
2023/03/24 11:11:33;;;;;;;;;;;;;;;30.16;22.73;93340.00;5031590;28;20356;-39
2023/03/24 11:14:02;;;;;;;;;;;;;;;30.32;22.03;93335.34;5046971;28;19917;-39
2023/03/24 11:16:29;;;;;;;;;;;;;;;30.98;21.98;93338.66;5031125;28;19913;-39
2023/03/24 11:18:57;;;;;;;;;;;;;;;29.47;21.01;93340.66;5031099;28;19967;-39
2023/03/24 11:21:22;;;;;;;;;;;;;;;29.30;19.96;93330.34;5030713;28;19920;-39
2023/03/24 11:23:48;;;;;;;;;;;;;;;28.42;22.39;93327.47;5031288;28;20306;-38
2023/03/24 11:26:16;;;;;;;;;;;;;;;29.26;20.59;93328.09;5046312;28;20420;-38
2023/03/24 11:28:44;;;;;;;;;;;;;;;27.37;19.70;93331.59;5031082;28;19920;-39
2023/03/24 11:31:09;;;;;;;;;;;;;;;27.15;22.81;93325.22;5045934;28;19974;-38
2023/03/24 11:33:40;;;;;;;;;;;;;;;27.43;25.66;93317.59;5036885;28;19995;-39
2023/03/24 11:36:24;;;;;;;;;;;;;;;27.66;21.60;93317.56;5050725;28;20046;-38
2023/03/24 11:38:57;;;;;;;;;;;;;;;27.18;21.40;93315.41;5050659;28;20313;-38
2023/03/24 11:41:22;;;;;;;;;;;;;;;27.53;21.23;93303.69;5065944;28;19920;-38
2023/03/24 11:43:48;;;;;;;;;;;;;;;27.39;24.51;93294.78;5050537;28;19917;-38
2023/03/24 11:46:16;;;;;;;;;;;;;;;27.72;22.43;93297.16;5050407;28;19920;-39
2023/03/24 11:48:54;;;;;;;;;;;;;;;27.33;20.09;93292.47;5041155;28;19917;-39
2023/03/24 11:51:23;;;;;;;;;;;;;;;27.49;24.38;93290.13;5045871;28;20305;-39
2023/03/24 11:53:49;;;;;;;;;;;;;;;28.00;18.77;93283.06;5030678;28;19924;-39
2023/03/24 11:56:23;;;;;;;;;;;;;;;26.78;19.52;93275.94;5030559;28;19917;-38
2023/03/24 11:58:55;;;;;;;;;;;;;;;26.76;20.61;93281.53;5030210;28;19921;-39
2023/03/24 12:01:20;;;;;;;;;;;;;;;25.85;21.01;93274.94;5045433;28;19921;-39
2023/03/24 12:04:05;;;;;;;;;;;;;;;25.01;22.15;93280.31;5030212;28;20363;-39
2023/03/24 12:06:33;;;;;;;;;;;;;;;25.58;23.09;93276.09;5030367;28;19998;-38
2023/03/24 12:09:08;;;;;;;;;;;;;;;25.88;19.85;93278.56;5029972;28;19956;-38
2023/03/24 12:11:33;;;;;;;;;;;;;;;25.14;21.30;93270.91;5030271;28;20290;-38
2023/03/24 12:13:59;;;;;;;;;;;;;;;25.63;19.54;93265.66;5029989;28;19987;-38
2023/03/24 12:16:40;;;;;;;;;;;;;;;24.95;21.77;93260.31;5045253;28;20460;-38
2023/03/24 12:19:24;;;;;;;;;;;;;;;25.19;19.28;93261.94;5029843;28;20387;-38
2023/03/24 12:21:52;;;;;;;;;;;;;;;25.16;19.12;93262.50;5029693;28;19924;-38
2023/03/24 12:24:20;;;;;;;;;;;;;;;25.54;17.32;93255.44;5029735;28;19913;-39
2023/03/24 12:26:46;;;;;;;;;;;;;;;25.28;18.50;93255.19;5029964;28;19937;-38
2023/03/24 12:29:32;;;;;;;;;;;;;;;24.80;22.71;93248.47;5044842;28;19948;-38
2023/03/24 12:32:01;;;;;;;;;;;;;;;24.94;20.08;93248.28;5028755;28;19924;-38
2023/03/24 12:34:32;;;;;;;;;;;;;;;24.94;20.32;93253.94;5041991;28;19919;-38
2023/03/24 12:37:07;;;;;;;;;;;;;;;25.18;20.97;93252.00;5049282;28;19967;-38
2023/03/24 12:39:41;;;;;;;;;;;;;;;25.07;15.92;93249.47;5049254;28;19962;-38
2023/03/24 12:42:09;;;;;;;;;;;;;;;24.89;18.15;93237.47;5064788;28;20034;-38
2023/03/24 12:44:34;;;;;;;;;;;;;;;24.76;19.29;93241.94;5043474;28;19939;-39
2023/03/24 12:47:00;;;;;;;;;;;;;;;24.72;19.22;93233.28;5029417;28;20448;-39
2023/03/24 12:49:25;;;;;;;;;;;;;;;24.78;17.25;93236.38;5029281;28;19920;-38
2023/03/24 12:51:51;;;;;;;;;;;;;;;24.40;19.12;93232.78;5029490;28;19960;-38
2023/03/24 12:54:18;;;;;;;;;;;;;;;24.20;17.08;93219.94;5029330;28;19944;-38